createdAt,value
2023-03-02T00:00:11.795Z,49.08
2023-03-02T00:04:11.888Z,47.75
2023-03-02T00:08:11.727Z,48.67
2023-03-02T00:12:11.707Z,49.08
2023-03-02T00:16:11.797Z,46.61
2023-03-02T00:20:11.832Z,45.58
2023-03-02T00:24:11.926Z,48.12
2023-03-02T00:28:12.113Z,48.15
2023-03-02T00:32:12.105Z,47.93
2023-03-02T00:36:12.022Z,47.00
2023-03-02T00:40:11.989Z,48.44
2023-03-02T00:44:11.922Z,45.47
2023-03-02T00:48:11.918Z,46.71
2023-03-02T00:52:11.856Z,47.00
2023-03-02T00:56:11.854Z,48.05
2023-03-02T01:00:11.791Z,49.39
2023-03-02T01:04:11.782Z,47.76
2023-03-02T01:08:11.817Z,49.09
2023-03-02T01:12:11.819Z,46.98
2023-03-02T01:16:11.886Z,50.56
2023-03-02T01:20:11.744Z,50.45
2023-03-02T01:24:11.658Z,50.19
2023-03-02T01:28:11.608Z,48.64
2023-03-02T01:32:11.661Z,45.79
2023-03-02T01:36:11.540Z,47.38
2023-03-02T01:40:11.516Z,49.16
2023-03-02T01:44:11.536Z,50.64
2023-03-02T01:48:11.697Z,47.58
2023-03-02T01:52:11.651Z,48.33
2023-03-02T01:56:11.661Z,48.72
2023-03-02T02:00:11.586Z,48.69
2023-03-02T02:04:11.554Z,46.93
2023-03-02T02:08:11.543Z,48.89
2023-03-02T02:12:11.462Z,49.94
2023-03-02T02:16:11.453Z,49.78
2023-03-02T02:20:11.592Z,49.22
2023-03-02T02:24:11.479Z,51.07
2023-03-02T02:28:11.470Z,49.79
2023-03-02T02:32:11.527Z,49.18
2023-03-02T02:36:11.362Z,48.47
2023-03-02T02:40:11.356Z,49.26
2023-03-02T02:44:11.264Z,48.54
2023-03-02T02:48:11.264Z,50.42
2023-03-02T02:52:11.215Z,48.21
2023-03-02T02:56:11.259Z,47.09
2023-03-02T03:00:11.471Z,46.95
2023-03-02T03:04:11.813Z,47.94
2023-03-02T03:08:11.735Z,47.27
2023-03-02T03:12:11.651Z,48.08
2023-03-02T03:16:11.616Z,47.31
2023-03-02T03:20:11.587Z,47.30
2023-03-02T03:24:11.547Z,46.25
2023-03-02T03:28:11.492Z,45.42
2023-03-02T03:32:11.512Z,45.03
2023-03-02T03:36:11.408Z,44.62
2023-03-02T03:40:11.468Z,46.20
2023-03-02T03:44:11.394Z,45.45
2023-03-02T03:48:11.348Z,44.75
2023-03-02T03:52:11.275Z,44.37
2023-03-02T03:56:11.379Z,42.94
2023-03-02T04:00:11.470Z,42.92
2023-03-02T04:04:11.614Z,44.73
2023-03-02T04:08:11.594Z,44.04
2023-03-02T04:12:11.549Z,43.30
2023-03-02T04:16:11.541Z,44.59
2023-03-02T04:20:11.461Z,45.29
2023-03-02T04:24:11.412Z,43.92
2023-03-02T04:28:11.346Z,44.46
2023-03-02T04:32:11.388Z,42.06
2023-03-02T04:36:11.265Z,44.77
2023-03-02T04:40:11.279Z,42.71
2023-03-02T04:44:11.227Z,43.26
2023-03-02T04:48:11.205Z,43.01
2023-03-02T04:52:11.137Z,40.03
2023-03-02T04:56:11.109Z,39.82
2023-03-02T05:00:11.229Z,41.14
2023-03-02T05:04:11.138Z,41.85
2023-03-02T05:08:11.061Z,38.37
2023-03-02T05:12:11.041Z,38.60
2023-03-02T05:16:11.035Z,32.88
2023-03-02T05:20:11.060Z,35.87
2023-03-02T05:24:10.944Z,29.57
2023-03-02T05:28:10.913Z,28.70
2023-03-02T05:32:10.920Z,28.74
2023-03-02T05:36:10.786Z,29.40
2023-03-02T05:40:10.823Z,30.57
2023-03-02T05:44:10.744Z,27.43
2023-03-02T05:48:10.684Z,30.34
2023-03-02T05:52:10.838Z,28.78
2023-03-02T05:56:10.786Z,29.23
2023-03-02T06:00:10.674Z,29.02
2023-03-02T06:04:10.680Z,29.21
2023-03-02T06:08:10.637Z,25.48
2023-03-02T06:12:10.584Z,28.15
2023-03-02T06:16:10.644Z,26.89
2023-03-02T06:20:10.564Z,29.59
2023-03-02T06:24:10.486Z,28.97
2023-03-02T06:28:10.456Z,25.62
2023-03-02T06:32:10.644Z,26.27
2023-03-02T06:36:10.449Z,25.26
2023-03-02T06:40:10.368Z,24.77
2023-03-02T06:44:10.609Z,25.00
2023-03-02T06:48:10.697Z,28.81
2023-03-02T06:52:10.857Z,39.25
2023-03-02T06:56:10.933Z,36.86
2023-03-02T07:00:11.026Z,35.15
2023-03-02T07:04:11.022Z,53.45
2023-03-02T07:08:11.184Z,72.03
2023-03-02T07:12:11.360Z,85.16
2023-03-02T07:16:11.469Z,89.68
2023-03-02T07:20:11.567Z,92.07
2023-03-02T07:24:11.710Z,97.17
2023-03-02T07:28:11.656Z,94.80
2023-03-02T07:32:12.615Z,86.96
2023-03-02T07:36:11.745Z,80.66
2023-03-02T07:40:11.831Z,77.34
2023-03-02T07:44:11.866Z,70.99
2023-03-02T07:48:11.925Z,72.28
2023-03-02T07:52:12.083Z,65.82
2023-03-02T07:56:12.087Z,64.15
2023-03-02T08:00:12.149Z,63.85
2023-03-02T08:04:12.189Z,57.81
2023-03-02T08:08:12.212Z,59.51
2023-03-02T08:12:12.328Z,60.53
2023-03-02T08:16:12.310Z,57.34
2023-03-02T08:20:12.314Z,57.92
2023-03-02T08:24:12.368Z,57.21
2023-03-02T08:28:12.268Z,58.87
2023-03-02T08:32:12.400Z,40.19
2023-03-02T08:36:12.452Z,28.07
2023-03-02T08:40:12.569Z,51.89
2023-03-02T08:44:13.096Z,68.37
2023-03-02T08:48:12.706Z,80.88
2023-03-02T08:52:12.737Z,88.54
2023-03-02T08:56:12.769Z,102.25
2023-03-02T09:00:12.796Z,106.60
2023-03-02T09:04:12.730Z,88.27
2023-03-02T09:08:12.596Z,88.42
2023-03-02T09:12:12.608Z,98.07
2023-03-02T09:16:12.606Z,99.97
2023-03-02T09:20:12.733Z,100.03
2023-03-02T09:24:12.768Z,100.51
2023-03-02T09:28:12.671Z,99.18
2023-03-02T09:32:12.730Z,97.29
2023-03-02T09:36:12.645Z,97.12
2023-03-02T09:40:12.653Z,97.22
2023-03-02T09:44:12.543Z,97.39
2023-03-02T09:48:12.497Z,87.99
2023-03-02T09:52:12.421Z,90.63
2023-03-02T09:56:12.423Z,94.41
2023-03-02T10:00:19.248Z,91.88
2023-03-02T10:04:13.706Z,93.19
2023-03-02T10:08:12.330Z,96.01
2023-03-02T10:12:12.415Z,95.83
2023-03-02T10:16:12.627Z,95.72
2023-03-02T10:20:12.561Z,97.10
2023-03-02T10:24:12.515Z,95.53
2023-03-02T10:28:12.438Z,93.62
2023-03-02T10:32:12.634Z,96.06
2023-03-02T10:36:12.669Z,91.16
2023-03-02T10:40:12.363Z,94.66
2023-03-02T10:44:12.320Z,89.66
2023-03-02T10:48:12.282Z,91.20
2023-03-02T10:52:12.223Z,92.12
2023-03-02T10:56:12.169Z,91.16
2023-03-02T11:00:12.131Z,91.03
2023-03-02T11:04:12.160Z,89.24
2023-03-02T11:08:12.131Z,73.93
2023-03-02T11:12:12.069Z,74.40
2023-03-02T11:16:26.668Z,40.38
2023-03-02T11:20:11.955Z,44.32
2023-03-02T11:24:11.937Z,46.23
2023-03-02T11:28:11.896Z,42.65
2023-03-02T11:32:11.869Z,40.22
2023-03-02T11:36:11.804Z,30.53
2023-03-02T11:40:11.823Z,26.13
2023-03-02T11:44:11.701Z,28.80
2023-03-02T11:48:11.660Z,29.70
2023-03-02T11:52:11.703Z,52.03
2023-03-02T11:56:11.669Z,68.80
2023-03-02T12:00:11.568Z,52.80
2023-03-02T12:04:11.545Z,75.99
2023-03-02T12:08:11.473Z,82.88
2023-03-02T12:12:11.555Z,119.34
2023-03-02T12:16:11.521Z,125.54
2023-03-02T12:20:11.654Z,112.13
2023-03-02T12:24:11.415Z,105.77
2023-03-02T12:28:11.404Z,98.02
2023-03-02T12:32:11.403Z,106.15
2023-03-02T12:36:11.343Z,104.17
2023-03-02T12:40:11.287Z,104.09
2023-03-02T12:44:11.426Z,107.97
2023-03-02T12:48:11.337Z,110.34
2023-03-02T12:52:11.321Z,105.79
2023-03-02T12:56:11.208Z,100.02
2023-03-02T13:00:11.104Z,98.05
2023-03-02T13:04:11.149Z,93.43
2023-03-02T13:08:11.054Z,92.20
2023-03-02T13:12:11.009Z,94.35
2023-03-02T13:16:11.080Z,95.81
2023-03-02T13:20:10.953Z,94.04
2023-03-02T13:24:12.412Z,93.84
2023-03-02T13:28:11.131Z,95.79
2023-03-02T13:32:11.346Z,93.65
2023-03-02T13:36:11.297Z,97.15
2023-03-02T13:40:11.230Z,96.31
2023-03-02T13:44:11.248Z,100.67
2023-03-02T13:48:11.109Z,104.69
2023-03-02T13:52:11.103Z,107.44
2023-03-02T13:56:11.054Z,111.20
2023-03-02T14:00:11.047Z,111.86
2023-03-02T14:04:11.066Z,116.09
2023-03-02T14:08:10.940Z,117.30
2023-03-02T14:12:10.920Z,115.97
2023-03-02T14:16:10.933Z,120.13
2023-03-02T14:20:10.828Z,121.03
2023-03-02T14:24:10.805Z,125.82
2023-03-02T14:28:10.734Z,123.66
2023-03-02T14:32:10.749Z,128.62
2023-03-02T14:36:10.772Z,129.00
2023-03-02T14:40:11.005Z,129.84
2023-03-02T14:44:10.981Z,132.81
2023-03-02T14:48:10.949Z,133.02
2023-03-02T14:52:10.887Z,135.79
2023-03-02T14:56:10.825Z,134.08
2023-03-02T15:00:10.841Z,135.91
2023-03-02T15:04:10.785Z,134.37
2023-03-02T15:08:10.730Z,130.21
2023-03-02T15:12:10.720Z,128.35
2023-03-02T15:16:10.757Z,125.50
2023-03-02T15:20:10.703Z,125.31
2023-03-02T15:24:10.631Z,124.35
2023-03-02T15:28:10.561Z,123.35
2023-03-02T15:32:10.598Z,126.66
2023-03-02T15:36:10.708Z,123.08
2023-03-02T15:40:10.771Z,124.74
2023-03-02T15:44:10.866Z,117.50
2023-03-02T15:48:13.307Z,117.12
2023-03-02T15:52:10.927Z,114.27
2023-03-02T15:56:10.920Z,106.34
2023-03-02T16:00:10.912Z,107.89
2023-03-02T16:04:10.837Z,104.77
2023-03-02T16:08:10.790Z,102.71
2023-03-02T16:12:10.761Z,102.08
2023-03-02T16:16:10.832Z,95.90
2023-03-02T16:20:10.685Z,93.25
2023-03-02T16:24:10.740Z,93.71
2023-03-02T16:28:10.635Z,90.39
2023-03-02T16:32:10.922Z,90.47
2023-03-02T16:36:10.774Z,87.89
2023-03-02T16:40:10.784Z,86.46
2023-03-02T16:44:10.738Z,83.54
2023-03-02T16:48:10.699Z,86.73
2023-03-02T16:52:10.624Z,77.39
2023-03-02T16:56:10.610Z,78.34
2023-03-02T17:00:10.583Z,78.50
2023-03-02T17:04:10.674Z,75.64
2023-03-02T17:08:10.499Z,74.16
2023-03-02T17:12:10.474Z,73.66
2023-03-02T17:16:10.689Z,68.26
2023-03-02T17:20:10.781Z,67.49
2023-03-02T17:24:10.836Z,69.29
2023-03-02T17:28:10.892Z,66.15
2023-03-02T17:32:10.944Z,64.20
2023-03-02T17:36:10.862Z,60.77
2023-03-02T17:40:10.854Z,65.73
2023-03-02T17:44:10.841Z,60.88
2023-03-02T17:48:10.795Z,60.30
2023-03-02T17:52:10.824Z,59.80
2023-03-02T17:56:10.833Z,57.50
2023-03-02T18:00:10.944Z,51.34
2023-03-02T18:04:10.983Z,54.40
2023-03-02T18:08:10.971Z,54.83
2023-03-02T18:12:10.990Z,54.16
2023-03-02T18:16:11.085Z,52.37
2023-03-02T18:20:11.061Z,53.85
2023-03-02T18:24:11.130Z,50.02
2023-03-02T18:28:11.172Z,46.64
2023-03-02T18:32:11.265Z,49.74
2023-03-02T18:36:11.321Z,46.02
2023-03-02T18:40:11.387Z,44.65
2023-03-02T18:44:11.468Z,46.37
2023-03-02T18:48:11.574Z,41.92
2023-03-02T18:52:11.638Z,43.47
2023-03-02T18:56:11.756Z,41.84
2023-03-02T19:00:11.862Z,42.81
2023-03-02T19:04:11.993Z,46.23
2023-03-02T19:08:12.105Z,57.03
2023-03-02T19:12:12.212Z,61.57
2023-03-02T19:16:12.429Z,64.32
2023-03-02T19:20:12.617Z,68.38
2023-03-02T19:24:12.636Z,62.39
2023-03-02T19:28:12.829Z,65.85
2023-03-02T19:32:12.962Z,61.65
2023-03-02T19:36:13.105Z,60.82
2023-03-02T19:40:13.232Z,57.88
2023-03-02T19:44:13.416Z,57.80
2023-03-02T19:48:13.549Z,55.79
2023-03-02T19:52:13.723Z,52.76
2023-03-02T19:56:13.926Z,55.26
2023-03-02T20:00:14.137Z,55.72
2023-03-02T20:04:14.272Z,50.99
2023-03-02T20:08:14.473Z,56.50
2023-03-02T20:12:14.649Z,50.68
2023-03-02T20:16:14.838Z,47.00
2023-03-02T20:20:15.028Z,49.84
2023-03-02T20:24:15.200Z,44.90
2023-03-02T20:28:15.450Z,49.97
2023-03-02T20:32:15.687Z,47.92
2023-03-02T20:36:15.611Z,46.23
2023-03-02T20:40:15.543Z,45.50
2023-03-02T20:44:15.569Z,48.28
2023-03-02T20:48:15.504Z,45.16
2023-03-02T20:52:15.462Z,40.71
2023-03-02T20:56:15.405Z,43.57
2023-03-02T21:00:15.385Z,40.99
2023-03-02T21:04:15.356Z,39.22
2023-03-02T21:08:15.296Z,39.92
2023-03-02T21:12:15.317Z,38.73
2023-03-02T21:16:15.341Z,38.45
2023-03-02T21:20:17.159Z,40.79
2023-03-02T21:24:15.221Z,38.58
2023-03-02T21:28:15.165Z,37.52
2023-03-02T21:32:15.134Z,36.64
2023-03-02T21:36:15.098Z,35.06
2023-03-02T21:40:15.043Z,35.49
2023-03-02T21:44:15.000Z,35.64
2023-03-02T21:48:14.963Z,32.95
2023-03-02T21:52:14.973Z,34.30
2023-03-02T21:56:14.861Z,35.50
2023-03-02T22:00:14.852Z,30.40
2023-03-02T22:04:14.812Z,31.98
2023-03-02T22:08:14.873Z,29.32
2023-03-02T22:12:14.956Z,26.64
2023-03-02T22:16:15.067Z,29.29
2023-03-02T22:20:15.042Z,30.23
2023-03-02T22:24:15.047Z,29.01
2023-03-02T22:28:15.069Z,29.63
2023-03-02T22:32:15.125Z,31.62
2023-03-02T22:36:15.055Z,25.73
2023-03-02T22:40:15.064Z,30.68
2023-03-02T22:44:15.087Z,31.01
2023-03-02T22:48:15.090Z,30.87
2023-03-02T22:52:15.035Z,30.93
2023-03-02T22:56:15.064Z,32.44
2023-03-02T23:00:15.085Z,31.10
2023-03-02T23:04:14.994Z,34.77
2023-03-02T23:08:14.953Z,34.64
2023-03-02T23:12:14.994Z,32.52
2023-03-02T23:16:14.973Z,34.76
2023-03-02T23:20:14.963Z,37.12
2023-03-02T23:24:14.948Z,35.53
2023-03-02T23:28:14.952Z,38.19
2023-03-02T23:32:16.279Z,37.73
2023-03-02T23:36:14.868Z,37.96
2023-03-02T23:40:14.809Z,37.73
2023-03-02T23:44:14.837Z,34.01
2023-03-02T23:48:14.719Z,38.35
2023-03-02T23:52:14.693Z,40.62
2023-03-02T23:56:14.645Z,36.93
